Time;durP1;ratioP1;P1;durP2;ratioP2;P2;SDS_P1;SDS_P2;PMS_P1;PMS_P2;Temp;Humidity;BMP_temperature;BMP_pressure;BME280_temperature;BME280_humidity;BME280_pressure;Samples;Min_cycle;Max_cycle;Signal;HPM_P1;HPM_P2
2021/10/19 00:05:44;;;;;;;49.92;21.13;;;;;;;7.38;97.26;101278.16;20745051;28;20064;-68
2021/10/19 00:15:46;;;;;;;48.60;19.38;;;;;;;7.47;97.07;101274.75;20746148;28;20538;-69
2021/10/19 00:25:47;;;;;;;58.05;21.42;;;;;;;7.56;96.46;101294.84;20746231;28;20057;-69
2021/10/19 00:35:49;;;;;;;49.25;18.65;;;;;;;7.25;96.45;101286.69;20743778;28;20100;-69
2021/10/19 00:57:07;;;;;;;52.25;20.92;;;;;;;7.36;96.49;101292.00;20737683;28;20046;-69
2021/10/19 01:07:09;;;;;;;56.60;21.42;;;;;;;7.45;96.45;101282.56;20740001;28;20054;-68
2021/10/19 01:17:11;;;;;;;49.47;19.65;;;;;;;7.49;96.46;101264.38;20740491;28;20111;-69
2021/10/19 01:27:13;;;;;;;54.22;22.17;;;;;;;7.52;96.36;101277.41;20739560;28;20053;-69
2021/10/19 01:37:14;;;;;;;58.03;21.90;;;;;;;7.57;96.01;101270.50;20737140;28;20554;-69
2021/10/19 01:47:16;;;;;;;58.28;22.08;;;;;;;7.57;96.22;101283.53;20737286;28;20053;-70
2021/10/19 01:57:17;;;;;;;62.38;22.33;;;;;;;7.65;96.93;101255.84;20737674;28;20073;-68
2021/10/19 02:07:19;;;;;;;67.90;22.88;;;;;;;7.72;96.16;101249.84;20735806;28;20470;-69
2021/10/19 02:17:21;;;;;;;64.97;23.60;;;;;;;7.72;96.57;101234.19;20736949;28;20465;-69
2021/10/19 02:27:23;;;;;;;64.05;23.17;;;;;;;7.76;96.85;101251.63;20735265;28;20049;-69
2021/10/19 02:37:24;;;;;;;65.53;23.30;;;;;;;7.81;96.53;101234.28;20734597;28;20096;-70
2021/10/19 02:47:26;;;;;;;65.72;24.08;;;;;;;7.89;96.69;101206.53;20734999;28;20561;-69
2021/10/19 02:57:28;;;;;;;64.53;23.08;;;;;;;7.88;96.72;101214.34;20734779;28;20096;-69
2021/10/19 03:07:29;;;;;;;73.28;24.98;;;;;;;7.98;96.77;101221.38;20733290;28;20062;-69
2021/10/19 03:17:31;;;;;;;70.60;24.80;;;;;;;8.01;96.23;101230.97;20739231;28;20053;-69
2021/10/19 03:27:32;;;;;;;73.78;25.95;;;;;;;8.09;96.85;101232.75;20749184;28;20050;-69
2021/10/19 03:37:34;;;;;;;66.40;25.63;;;;;;;8.11;97.02;101219.75;20747352;28;20135;-68
2021/10/19 03:47:35;;;;;;;63.55;23.77;;;;;;;8.15;97.43;101206.75;20746379;28;20489;-68
2021/10/19 03:57:39;;;;;;;64.78;24.48;;;;;;;8.19;97.18;101223.25;20747476;28;20052;-68
2021/10/19 04:07:40;;;;;;;60.00;23.67;;;;;;;8.09;97.29;101243.19;20744762;28;20058;-68
2021/10/19 04:17:42;;;;;;;60.97;24.38;;;;;;;8.16;97.38;101224.13;20744719;28;20050;-68
2021/10/19 04:27:43;;;;;;;56.20;23.23;;;;;;;8.17;97.17;101233.69;20743281;28;20104;-67
2021/10/19 04:37:45;;;;;;;56.10;23.55;;;;;;;8.20;97.04;101225.91;20741601;28;20406;-67
2021/10/19 04:47:46;;;;;;;50.78;22.45;;;;;;;8.22;97.87;101232.00;20743074;28;20546;-69
2021/10/19 04:57:48;;;;;;;48.97;21.45;;;;;;;8.26;97.27;101227.69;20742435;28;20097;-70
2021/10/19 05:07:49;;;;;;;51.90;21.83;;;;;;;8.25;97.59;101214.63;20740347;28;20061;-69
2021/10/19 05:17:51;;;;;;;44.30;20.17;;;;;;;8.29;97.58;101212.06;20741213;28;20458;-69
2021/10/19 05:27:52;;;;;;;54.63;22.17;;;;;;;8.29;97.46;101216.38;20740333;28;20045;-69
2021/10/19 05:37:54;;;;;;;49.97;23.92;;;;;;;8.30;97.11;101229.44;20737838;28;20050;-70
2021/10/19 05:47:55;;;;;;;49.72;22.90;;;;;;;8.35;97.54;101217.31;20739264;28;20462;-69
2021/10/19 05:57:57;;;;;;;51.35;23.08;;;;;;;8.41;97.57;101226.94;20738250;28;20050;-69
2021/10/19 06:08:18;;;;;;;50.78;24.23;;;;;;;8.45;97.24;101228.72;20737243;28;20100;-69
2021/10/19 06:18:20;;;;;;;56.03;25.10;;;;;;;8.54;96.93;101228.75;20737212;28;20068;-68
2021/10/19 06:28:22;;;;;;;50.80;23.90;;;;;;;8.57;97.30;101233.13;20736667;28;20104;-68
2021/10/19 06:38:23;;;;;;;52.13;25.30;;;;;;;8.63;97.27;101226.22;20736108;28;20081;-68
2021/10/19 06:48:25;;;;;;;49.75;23.58;;;;;;;8.75;97.01;101209.72;20737087;28;20050;-68
2021/10/19 06:58:27;;;;;;;50.28;24.13;;;;;;;8.86;97.33;101226.34;20750788;28;20101;-70
2021/10/19 07:08:29;;;;;;;56.65;26.58;;;;;;;8.96;96.98;101232.47;20744035;28;20097;-70
2021/10/19 07:18:30;;;;;;;49.40;23.55;;;;;;;9.03;96.65;101233.34;20744088;28;20108;-70
2021/10/19 07:28:32;;;;;;;48.75;25.15;;;;;;;9.14;96.40;101232.50;20743574;28;20112;-71
2021/10/19 07:38:33;;;;;;;51.33;24.58;;;;;;;9.32;96.48;101236.06;20743966;28;20124;-69
2021/10/19 07:48:35;;;;;;;51.70;26.17;;;;;;;9.49;96.20;101224.78;20740610;28;20558;-70
2021/10/19 07:58:37;;;;;;;48.53;25.80;;;;;;;9.71;95.83;101206.50;20771201;23;20053;-83
2021/10/19 08:08:38;;;;;;;50.30;25.80;;;;;;;9.92;95.08;101229.19;20791082;28;20072;-83
2021/10/19 08:18:40;;;;;;;46.78;24.88;;;;;;;9.96;95.57;101225.69;20844190;28;20052;-82
2021/10/19 08:28:43;;;;;;;44.83;24.50;;;;;;;10.20;95.74;101190.78;20827510;28;20148;-82
2021/10/19 08:38:46;;;;;;;46.50;25.55;;;;;;;10.48;94.60;101184.63;20925303;28;20041;-81
2021/10/19 08:48:48;;;;;;;41.13;22.65;;;;;;;10.74;94.21;101181.97;20923790;28;20045;-81
2021/10/19 08:58:59;;;;;;;37.83;22.63;;;;;;;10.99;93.67;101176.59;20907692;28;20049;-82
2021/10/19 09:09:09;;;;;;;38.88;22.33;;;;;;;11.28;93.02;101155.47;20920650;23;20045;-73
2021/10/19 09:19:12;;;;;;;36.33;21.20;;;;;;;11.52;92.68;101168.41;20816797;28;20080;-72
2021/10/19 09:29:23;;;;;;;31.40;19.50;;;;;;;11.80;91.70;101157.69;20815791;28;20574;-74
2021/10/19 09:39:38;;;;;;;28.20;18.10;;;;;;;12.15;91.09;101151.28;20814825;28;20049;-74
2021/10/19 09:49:39;;;;;;;28.38;18.02;;;;;;;12.45;90.62;101145.69;20814955;28;20097;-74
2021/10/19 09:59:42;;;;;;;25.00;16.80;;;;;;;12.69;89.28;101143.66;20812938;28;20050;-74
2021/10/19 10:09:45;;;;;;;21.40;13.85;;;;;;;12.92;89.75;101136.34;20810215;28;20049;-74
2021/10/19 10:19:47;;;;;;;22.25;12.68;;;;;;;13.06;88.55;101134.38;20729647;28;20054;-75
2021/10/19 10:29:49;;;;;;;18.90;11.50;;;;;;;13.25;86.88;101126.28;20730246;28;20053;-73
2021/10/19 10:39:51;;;;;;;17.60;11.57;;;;;;;13.33;86.50;101124.41;20735399;28;20041;-73
2021/10/19 10:49:52;;;;;;;16.55;10.40;;;;;;;13.51;86.08;101117.97;20729123;28;20431;-74
2021/10/19 10:59:55;;;;;;;17.23;11.13;;;;;;;13.64;85.54;101118.63;20729160;28;20045;-72
2021/10/19 11:10:05;;;;;;;15.98;10.25;;;;;;;14.12;83.95;101101.09;20727294;28;20050;-73
2021/10/19 11:20:08;;;;;;;18.20;9.75;;;;;;;14.48;81.73;101096.03;20810181;28;20053;-73
2021/10/19 11:30:11;;;;;;;13.10;8.32;;;;;;;14.72;80.37;101081.47;20809009;28;20454;-73
2021/10/19 11:40:13;;;;;;;10.95;7.80;;;;;;;15.12;79.01;101073.50;20816085;28;20050;-73
2021/10/19 11:50:25;;;;;;;14.45;8.98;;;;;;;15.70;76.83;101066.81;20823712;28;20192;-74
2021/10/19 12:00:27;;;;;;;15.02;6.93;;;;;;;16.11;75.19;101041.06;20822549;28;20092;-76
2021/10/19 12:10:30;;;;;;;13.25;7.07;;;;;;;15.97;76.38;101040.56;20821168;28;20049;-72
2021/10/19 12:20:37;;;;;;;11.20;6.68;;;;;;;15.93;76.58;101021.28;20820666;28;20049;-71
2021/10/19 12:30:47;;;;;;;12.18;7.38;;;;;;;15.90;76.34;101024.00;20807957;28;20048;-72
2021/10/19 12:40:48;;;;;;;12.45;6.82;;;;;;;15.91;75.62;101015.19;20738315;28;20084;-72
2021/10/19 12:50:50;;;;;;;15.48;6.50;;;;;;;15.74;77.17;100997.16;20734306;28;20491;-73
2021/10/19 13:01:04;;;;;;;9.23;6.07;;;;;;;16.16;74.94;100991.59;20736040;28;20099;-73
2021/10/19 13:11:06;;;;;;;8.93;5.65;;;;;;;16.52;72.30;100981.66;20799456;28;20063;-73
2021/10/19 13:21:14;;;;;;;12.13;6.43;;;;;;;16.58;71.99;100981.50;20815221;28;20053;-73
2021/10/19 13:31:15;;;;;;;10.18;5.90;;;;;;;16.56;71.98;100967.44;20813708;28;20049;-73
2021/10/19 13:41:17;;;;;;;10.55;5.38;;;;;;;16.85;71.13;100952.47;20814778;28;20057;-72
2021/10/19 13:51:18;;;;;;;11.02;5.88;;;;;;;16.62;70.07;100947.88;20811223;28;20096;-72
2021/10/19 14:01:20;;;;;;;9.27;5.63;;;;;;;16.77;70.52;100951.84;20811104;28;20053;-72
2021/10/19 14:11:22;;;;;;;11.13;5.35;;;;;;;16.88;69.61;100939.16;20811649;28;20045;-72
2021/10/19 14:21:24;;;;;;;10.18;4.90;;;;;;;17.09;66.66;100930.47;20810567;28;20049;-71
2021/10/19 14:31:26;;;;;;;11.13;5.68;;;;;;;17.11;67.32;100923.38;20810425;28;20045;-71
2021/10/19 14:41:27;;;;;;;10.82;5.53;;;;;;;16.91;67.29;100924.03;20810941;28;20410;-72
2021/10/19 14:51:29;;;;;;;9.98;5.22;;;;;;;16.82;68.56;100920.84;20807109;28;20057;-72
2021/10/19 15:01:30;;;;;;;23.73;12.98;;;;;;;16.67;69.71;100907.19;20808410;28;20045;-72
2021/10/19 15:11:32;;;;;;;87.78;42.00;;;;;;;16.54;70.67;100902.34;20811057;28;20041;-72
2021/10/19 15:21:34;;;;;;;17.83;9.40;;;;;;;16.55;71.18;100891.69;20826535;28;20486;-72
2021/10/19 15:31:35;;;;;;;13.98;7.80;;;;;;;16.51;72.40;100886.56;20824307;28;20049;-72
2021/10/19 15:41:38;;;;;;;9.48;5.75;;;;;;;16.38;72.95;100875.50;20823555;28;20053;-73
2021/10/19 15:51:39;;;;;;;14.52;6.60;;;;;;;16.20;74.47;100878.75;20804340;28;20057;-72
2021/10/19 16:01:42;;;;;;;13.70;6.82;;;;;;;15.94;75.61;100861.91;20737693;28;20660;-72
2021/10/19 16:11:44;;;;;;;13.43;7.65;;;;;;;15.67;77.62;100879.47;20761198;28;20057;-72
2021/10/19 16:21:46;;;;;;;13.00;6.88;;;;;;;15.41;78.73;100866.97;20831669;28;20045;-72
2021/10/19 16:31:48;;;;;;;12.27;7.20;;;;;;;15.22;79.81;100855.19;20818349;28;20649;-72
2021/10/19 16:41:50;;;;;;;10.32;6.90;;;;;;;14.92;82.24;100856.91;20815347;28;20128;-72
2021/10/19 16:51:52;;;;;;;12.32;7.90;;;;;;;14.57;84.11;100851.63;20814315;28;20088;-71
2021/10/19 17:01:53;;;;;;;17.08;11.02;;;;;;;14.38;84.67;100850.31;20815775;28;20465;-71
2021/10/19 17:11:55;;;;;;;15.93;9.68;;;;;;;14.14;85.74;100848.25;20812661;28;20053;-71
2021/10/19 17:21:57;;;;;;;11.85;7.47;;;;;;;13.98;86.24;100861.75;20732212;28;20565;-71
2021/10/19 17:31:58;;;;;;;12.43;8.73;;;;;;;13.82;86.56;100877.03;20731274;28;20186;-71
2021/10/19 17:42:02;;;;;;;17.40;9.20;;;;;;;13.49;88.71;100873.31;20734361;28;20542;-71
2021/10/19 17:52:04;;;;;;;17.58;11.05;;;;;;;13.31;89.30;100871.91;20729684;28;20379;-70
2021/10/19 18:02:06;;;;;;;16.15;10.48;;;;;;;13.19;89.74;100869.50;20728634;28;20038;-70
2021/10/19 18:12:08;;;;;;;16.52;11.27;;;;;;;13.17;90.31;100875.69;20746569;28;20100;-73
2021/10/19 18:22:10;;;;;;;15.52;10.77;;;;;;;13.22;89.93;100879.13;20809347;28;20041;-73
2021/10/19 18:32:12;;;;;;;17.50;11.90;;;;;;;12.96;90.51;100867.31;20808630;28;20057;-74
2021/10/19 18:42:14;;;;;;;21.30;14.10;;;;;;;12.73;92.36;100866.84;20810384;28;20049;-73
2021/10/19 18:52:15;;;;;;;18.23;13.13;;;;;;;12.71;92.18;100871.25;20821065;28;20101;-73
2021/10/19 19:02:17;;;;;;;17.45;12.98;;;;;;;12.41;92.30;100857.75;20824962;28;20087;-73
2021/10/19 19:12:19;;;;;;;27.10;17.80;;;;;;;12.19;93.09;100841.44;20824856;28;20049;-73
2021/10/19 19:22:21;;;;;;;29.75;19.33;;;;;;;12.04;94.03;100836.44;20822975;28;20054;-73
2021/10/19 19:32:22;;;;;;;29.40;17.60;;;;;;;11.85;93.74;100846.31;20824038;28;20494;-73
2021/10/19 19:42:24;;;;;;;28.33;18.02;;;;;;;11.70;93.19;100854.38;20824506;28;20046;-73
2021/10/19 19:52:27;;;;;;;25.05;16.42;;;;;;;11.64;94.04;100851.81;20823380;28;20509;-73
2021/10/19 20:02:34;;;;;;;23.65;16.27;;;;;;;11.59;93.39;100848.38;20831301;28;20060;-73
2021/10/19 20:12:36;;;;;;;20.83;13.95;;;;;;;11.51;92.78;100845.88;20876245;28;20152;-73
2021/10/19 20:22:39;;;;;;;18.33;12.15;;;;;;;11.34;92.96;100838.19;20818948;28;20092;-72
2021/10/19 20:32:50;;;;;;;17.15;12.15;;;;;;;11.14;92.99;100840.19;20818605;28;20127;-71
2021/10/19 20:42:52;;;;;;;15.60;10.30;;;;;;;11.02;93.73;100835.94;20819214;28;20050;-70
2021/10/19 20:52:55;;;;;;;16.50;10.18;;;;;;;10.90;93.82;100847.41;20806943;28;20299;-70
2021/10/19 21:02:57;;;;;;;16.35;9.93;;;;;;;10.80;93.83;100835.28;20734800;28;20124;-71
2021/10/19 21:13:01;;;;;;;13.63;9.93;;;;;;;10.64;93.37;100823.22;20760540;28;20053;-70
2021/10/19 21:23:03;;;;;;;17.45;11.00;;;;;;;10.50;93.27;100818.13;20815212;28;20096;-71
2021/10/19 21:33:11;;;;;;;19.05;11.70;;;;;;;10.42;93.35;100804.22;20814450;28;20513;-71
2021/10/19 21:43:12;;;;;;;15.65;10.40;;;;;;;10.31;94.17;100800.81;20815370;28;20050;-72
2021/10/19 21:53:14;;;;;;;14.02;8.98;;;;;;;10.32;93.28;100789.47;20814716;28;20049;-71
2021/10/19 22:03:18;;;;;;;14.68;9.60;;;;;;;10.27;93.21;100787.75;20812038;28;20061;-71
2021/10/19 22:13:19;;;;;;;14.63;9.50;;;;;;;10.13;93.54;100773.00;20820002;28;20049;-71
2021/10/19 22:33:41;;;;;;;15.63;10.52;;;;;;;10.02;93.08;100753.03;20818339;28;20053;-71
2021/10/19 22:43:43;;;;;;;18.88;11.63;;;;;;;10.03;92.82;100753.91;20818803;28;20292;-71
2021/10/19 22:53:44;;;;;;;17.20;10.25;;;;;;;10.14;92.57;100730.25;20817689;28;20945;-71
2021/10/19 23:03:47;;;;;;;14.80;9.82;;;;;;;10.97;90.35;100705.00;20816132;28;20072;-70
2021/10/19 23:13:48;;;;;;;11.95;7.63;;;;;;;11.80;85.60;100690.69;20817449;28;20127;-72
2021/10/19 23:23:50;;;;;;;12.77;6.38;;;;;;;12.58;81.17;100679.69;20818370;28;20107;-71
2021/10/19 23:33:51;;;;;;;13.93;6.93;;;;;;;12.51;81.30;100683.34;20820054;28;20053;-71
2021/10/19 23:43:53;;;;;;;10.90;7.38;;;;;;;12.31;82.10;100667.97;20831862;28;20115;-72
2021/10/19 23:53:55;;;;;;;12.38;6.93;;;;;;;12.23;82.05;100666.38;20830321;28;20518;-72
